MAPA DE AEROPUERTO

INFORMACIÓN METAR y TAF

METAR FOR GCTS
ADDS - METARS form results

(1046 UTC 07 May 2021)
Data provider http://aviationweather.gov/metar/data/
 
METAR text: GCTS 071030Z 09016KT 9999 FEW032 22/13 Q1020 NOSIG
Conditions at: GCTS (TENERIFE SUR/REI, ES) observed 1030 UTC 07 May 2021
Temperature: 22.0°C (72°F)
Dewpoint: 13.0°C (55°F) [RH = 57%]
Pressure (altimeter): 30.12 inches Hg (1020.0 mb)
Winds: from the E (90 degrees) at 18 MPH (16 knots; 8.2 m/s)
Visibility: 6 or more miles (10+ km)
Ceiling: at least 12,000 feet AGL
Clouds: few clouds at 3200 feet AGL
Weather: no significant weather observed at this time

METAR text: GCTS 071000Z 10015KT 9999 FEW032 22/14 Q1020 NOSIG
Conditions at: GCTS (TENERIFE SUR/REI, ES) observed 1000 UTC 07 May 2021
Temperature: 22.0°C (72°F)
Dewpoint: 14.0°C (57°F) [RH = 60%]
Pressure (altimeter): 30.12 inches Hg (1020.0 mb)
Winds: from the E (100 degrees) at 17 MPH (15 knots; 7.7 m/s)
Visibility: 6 or more miles (10+ km)
Ceiling: at least 12,000 feet AGL
Clouds: few clouds at 3200 feet AGL
Weather: no significant weather observed at this time

Forecast for: GCTS (TENERIFE SUR/REI, ES)
Text: TAF GCTS 070800Z 0709/0809 05006KT 9999 FEW035 TX25/0714Z TN17/0806Z
Forecast period: 0900 UTC 07 May 2021 to 0900 UTC 08 May 2021
Forecast type: FROM: standard forecast or significant change
Winds: from the NE (50 degrees) at 7 MPH (6 knots; 3.1 m/s)
Visibility: 6 or more miles (10+ km)
Ceiling: at least 12,000 feet AGL
Clouds: few clouds at 3500 feet AGL
Weather: no significant weather forecast for this period
Text: BECMG 0709/0711 09016KT
Forecast period: 0900 to 1900 UTC 07 May 2021
Forecast type: BECOMING: Conditions expected to become as follows by 1100 UTC 07 May 2021
Winds: from the E (90 degrees) at 18 MPH (16 knots; 8.2 m/s)
Visibility: 6 or more miles (10+ km)
Ceiling: at least 12,000 feet AGL
Clouds: few clouds at 3500 feet AGL
Weather: no significant weather forecast for this period
Text: PROB40
Forecast period: 1500 to 2000 UTC 07 May 2021
Forecast type: TEMPORARY: The following changes expected for less than half the time period
Winds: from the SW (230 degrees) at 8 MPH (7 knots; 3.6 m/s)
Visibility: missing
Ceiling: unknown
Clouds: missing
Weather: no significant weather forecast for this period
Text: TEMPO 0715/0720 23007KT
Forecast period: 1900 UTC 07 May 2021 to 0900 UTC 08 May 2021
Forecast type: BECOMING: Conditions expected to become as follows by 2200 UTC 07 May 2021
Winds: from the NE (40 degrees) at 7 MPH (6 knots; 3.1 m/s)
Visibility: 6 or more miles (10+ km)
Ceiling: at least 12,000 feet AGL
Clouds: few clouds at 3500 feet AGL
Weather: no significant weather forecast for this period